Tiempo atmosférico en la estación meteorológica de Olite/Erriberri, Navarra (390 m.)



Fecha
DESCASC
Temp. máxima en grados centígrados (hora)
DESCASC
Temp. mínima en grados centígrados (hora)
DESCASC
Temp. media en grados centígrados
DESCASC
Racha de viento máxima en m/sg (hora)
DESCASC
Velocidad máxima media en intervalos de 10 minutos(hora)
DESCASC
Precipitaciones diarias en mm
DESCASC
Precipitaciones de 00:00 a 06:00 en mm
DESCASC
Precipitaciones de 06:00 a 12:00 en mm
DESCASC
Precipitaciones de 12:00 a 18:00 en mm
DESCASC
Precipitaciones de 18:00 a 24:00 en mm
DESCASC
08-12-2019 8.9 (22:10) 0.3 (05:20) 4.6 6.67 (22:00) 4.17 (22:00) 4.4 0 0 4.2 0.2
07-12-2019 12.1 (15:40) -0.1 (07:30) 6 3.61 (22:40) 2.22 (20:50) 0 0 0 0 0
06-12-2019 12.4 (14:10) -0.6 (08:10) 5.9 3.33 (14:40) 1.94 (14:50) 0 0 0 0 0
05-12-2019 13.2 (14:20) 3.6 (00:00) 8.4 8.06 (00:10) 5 (00:20) 0 0 0 0 0
04-12-2019 12.6 (15:00) 0.4 (00:00) 6.5 14.72 (19:10) 8.06 (19:00) 0 0 0 0 0
03-12-2019 8 (14:20) 0.6 (00:00) 4.3 9.72 (00:10) 5.83 (00:40) 0 0 0 0 0
02-12-2019 10.7 (13:20) 5.3 (00:00) 8 11.39 (12:40) 6.39 (12:30) 0 0 0 0 0
01-12-2019 10.2 (15:20) 2.7 (00:00) 6.4 8.33 (23:59) 5 (23:20) 0 0 0 0 0
30-11-2019 15.5 (14:20) 4.1 (00:00) 9.8 11.39 (13:40) 7.22 (14:00) 11 0 0 7 4
29-11-2019 15.5 (13:40) 5.7 (00:00) 10.6 6.39 (14:00) 3.61 (14:00) 0 0 0 0 0
28-11-2019 15 (13:30) 4.9 (00:00) 10 4.44 (15:00) 2.78 (13:20) 0.4 0 0 0.2 0.2
27-11-2019 14.6 (14:40) 5.5 (00:00) 10.1 5.56 (03:50) 3.61 (03:50) 4.2 0.6 0 0.8 2.8
26-11-2019 15.9 (15:20) 4.7 (00:00) 10.3 12.22 (16:10) 6.39 (20:10) 1.4 0 0 0 1.4
25-11-2019 14.8 (14:20) 4.5 (00:00) 9.7 3.33 (07:40) 2.22 (06:50) 0.4 0.2 0 0.2 0
24-11-2019 10.9 (16:10) 5.7 (00:00) 8.3 9.17 (02:00) 5.83 (02:40) 2.2 0.4 0 0 1.8
23-11-2019 10.7 (15:40) 6.8 (00:00) 8.8 16.39 (12:00) 10 (12:00) 4.2 1.6 2.4 0 0.2
22-11-2019 10.5 (18:50) 4.9 (00:00) 7.7 16.67 (13:00) 9.44 (13:10) 3 0 2.4 0.4 0.2
21-11-2019 11.3 (15:30) 3.6 (00:00) 7.5 8.61 (12:10) 4.72 (12:50) 0.2 0.2 0 0 0
20-11-2019 9.6 (15:10) -1.1 (-00:0) 4.3 9.72 (12:30) 5.83 (14:10) 2.2 0 0 0 2.2
19-11-2019 11 (15:10) 1.5 (00:00) 6.3 7.78 (13:10) 4.72 (11:20) 0 0 0 0 0
18-11-2019 8.6 (13:50) 3.3 (00:00) 6 12.5 (15:10) 6.39 (12:30) 0.2 0.2 0 0 0
17-11-2019 9.2 (15:30) 2 (00:00) 5.6 5.28 (13:20) 3.06 (13:20) 1.4 0 0 0.2 1.2
16-11-2019 5.8 (19:40) -1 (-00:0) 2.4 4.17 (22:50) 2.78 (22:40) 0.2 0 0 0.2 0
15-11-2019 7.3 (14:20) 1.2 (00:00) 4.3 12.78 (13:00) 7.5 (13:00) 2 0 2 0 0
14-11-2019 10.3 (14:30) 3.7 (00:00) 7 8.89 (05:10) 5 (05:10) 7 5.4 1.6 0 0
13-11-2019 13.1 (14:10) 5.2 (00:00) 9.2 9.17 (14:20) 5.56 (14:20) 4.6 3 1.6 0 0
12-11-2019 11.7 (13:10) 4.9 (00:00) 8.3 9.44 (13:00) 6.11 (13:10) 0.2 0 0 0 0.2

Gráficas

Temp. máximas Temp. mínimas Temp. medias Precipitaciones Rachas de viento máximas Velocidades máximas media en intervalos de 10 minutos

Datos horarios

Fecha y hora oficial Temperatura (ºC) Velocidad del viento (km/h) Dirección del viento Racha (km/h) Dirección de racha Precipitación (mm) Presión (hPa) Tendencia (hPa) Humedad (%)
2019-12-11 23:00:00 6.9 9 Noroeste 16 Oeste 0 -- -- 75
2019-12-11 22:00:00 7.3 8 Noroeste 17 Noroeste 0 -- -- 73
2019-12-11 21:00:00 6.6 6 Noroeste 16 Noroeste 0 -- -- 75
2019-12-11 20:00:00 4.9 2 Noroeste 6 Sudoeste 0 -- -- 83
2019-12-11 19:00:00 5.4 0 Calma 11 Oeste 0 -- -- 75
2019-12-11 18:00:00 6.9 5 Oeste 18 Noroeste 0 -- -- 70
2019-12-11 17:00:00 8.6 12 Noroeste 30 Noroeste 0 -- -- 64
2019-12-11 16:00:00 9.1 21 Noroeste 39 Norte 0 -- -- 61
2019-12-11 15:00:00 8.9 21 Noroeste 37 Noroeste 0 -- -- 67
2019-12-11 14:00:00 8.8 17 Noroeste 35 Noroeste 0.2 -- -- 72
2019-12-11 13:00:00 8.1 13 Noroeste 24 Noroeste 0 -- -- 87
2019-12-11 12:00:00 7.3 13 Noroeste 22 Oeste 0 -- -- 89
2019-12-11 11:00:00 6.5 14 Noroeste 20 Oeste 0.4 -- -- 90
2019-12-11 10:00:00 6 12 Noroeste 20 Noroeste 0.2 -- -- 84
2019-12-11 09:00:00 5.2 6 Noroeste 11 Noroeste 0 -- -- 86
2019-12-11 08:00:00 4.1 2 Noroeste 10 Noroeste 0 -- -- 90
2019-12-11 07:00:00 3.6 5 Noroeste 9 Noroeste 0 -- -- 93
2019-12-11 06:00:00 3.1 0 Calma 5 Oeste 0 -- -- 92
2019-12-11 05:00:00 4 0 Calma 5 Este 0 -- -- 91
2019-12-11 04:00:00 3.9 2 Nordeste 9 Sudeste 0 -- -- 92
2019-12-11 03:00:00 3.7 0 Calma 4 Este 0 -- -- 90
2019-12-11 02:00:00 4.9 0 Calma 10 Noroeste 0 -- -- 86
2019-12-11 01:00:00 5.6 0 Calma 7 Oeste 0 -- -- 83
2019-12-11 00:00:00 5.2 3 Sudoeste 7 Norte 0 -- -- 84
2019-12-10 23:00:00 5.4 3 Noroeste 8 Oeste 0 -- -- 81
2019-12-10 22:00:00 6.9 5 Oeste 14 Noroeste 0 -- -- 77
2019-12-10 21:00:00 7.9 8 Noroeste 13 Noroeste 0 -- -- 72
2019-12-10 20:00:00 7.6 6 Norte 10 Noroeste 0 -- -- 78
2019-12-10 19:00:00 8 0 Calma 13 Noroeste 0 -- -- 74
2019-12-10 18:00:00 10.1 5 Noroeste 15 Oeste 0 -- -- 67
2019-12-10 17:00:00 12.1 9 Noroeste 15 Noroeste 0 -- -- 60
2019-12-10 16:00:00 13.1 10 Noroeste 18 Noroeste 0 -- -- 58
2019-12-10 15:00:00 13 11 Noroeste 20 Noroeste 0 -- -- 54
2019-12-10 14:00:00 12.3 14 Noroeste 22 Noroeste 0 -- -- 59
2019-12-10 13:00:00 11.2 18 Noroeste 26 Noroeste 0 -- -- 62
2019-12-10 12:00:00 10.3 17 Noroeste 27 Noroeste 0 -- -- 64
2019-12-10 11:00:00 9.5 14 Noroeste 26 Noroeste 0 -- -- 69
2019-12-10 10:00:00 7.6 11 Oeste 26 Noroeste 0 -- -- 75
2019-12-10 09:00:00 6.1 19 Noroeste 33 Noroeste 0 -- -- 80
2019-12-10 08:00:00 5.6 14 Oeste 27 Noroeste 0 -- -- 83
2019-12-10 07:00:00 5.6 13 Noroeste 19 Noroeste 0 -- -- 84
2019-12-10 06:00:00 7 6 Noroeste 22 Noroeste 0 -- -- 83
2019-12-10 05:00:00 7.4 12 Noroeste 19 Noroeste 0 -- -- 83
2019-12-10 04:00:00 7.3 9 Noroeste 19 Noroeste 0 -- -- 82
2019-12-10 03:00:00 7.9 15 Noroeste 23 Noroeste 0 -- -- 78
2019-12-10 02:00:00 7.7 9 Noroeste 20 Noroeste 0 -- -- 80
2019-12-10 01:00:00 7.3 4 Oeste 24 Oeste 0 -- -- 81
2019-12-10 00:00:00 7.9 14 Noroeste 34 Noroeste 0 -- -- 82
2019-12-09 23:00:00 8.4 12 Noroeste 22 Noroeste 0 -- -- 78
2019-12-09 22:00:00 8.4 13 Noroeste 28 Noroeste 0 -- -- 73
2019-12-09 21:00:00 9 18 Noroeste 28 Noroeste 0 -- -- 69
2019-12-09 20:00:00 9.2 15 Noroeste 24 Noroeste 0 -- -- 67
2019-12-09 19:00:00 9.7 11 Oeste 50 Noroeste 0 -- -- 63
2019-12-09 18:00:00 9.9 25 Noroeste 51 Noroeste 0 -- -- 63
2019-12-09 17:00:00 10.3 31 Noroeste 46 Noroeste 0 -- -- 66
2019-12-09 16:00:00 10.1 27 Noroeste 44 Noroeste 0 -- -- 69
2019-12-09 15:00:00 10.6 26 Noroeste 44 Noroeste 0 -- -- 69
2019-12-09 14:00:00 10.6 19 Noroeste 44 Noroeste 0 -- -- 72
2019-12-09 13:00:00 10 18 Noroeste 35 Noroeste 0 -- -- 77
2019-12-09 12:00:00 9 21 Noroeste 36 Noroeste 0 -- -- 75
2019-12-09 11:00:00 7.5 20 Oeste 37 Noroeste 0 -- -- 78
2019-12-09 10:00:00 7.5 19 Oeste 28 Oeste 0 -- -- 76
2019-12-09 09:00:00 8 19 Noroeste 28 Noroeste 0 -- -- 73
2019-12-09 08:00:00 8.9 19 Noroeste 49 Noroeste 0 -- -- 66
2019-12-09 07:00:00 7.7 19 Noroeste 37 Noroeste 0 -- -- 74
2019-12-09 06:00:00 5.1 9 Noroeste 28 Oeste 0 -- -- 89
2019-12-09 05:00:00 2.3 6 Oeste 10 Oeste 0 -- -- 95
2019-12-09 04:00:00 3.1 3 Noroeste 9 Oeste 0 -- -- 93
2019-12-09 03:00:00 4.1 5 Oeste 10 Noroeste 0 -- -- 92
2019-12-09 02:00:00 4.8 6 Noroeste 11 Noroeste 0 -- -- 92
2019-12-09 01:00:00 6 5 Noroeste 15 Noroeste 0 -- -- 89
2019-12-09 00:00:00 6.3 8 Noroeste 17 Noroeste 0 -- -- 90
2019-12-08 23:00:00 7.2 6 Noroeste 21 Noroeste 0 -- -- 88
2019-12-08 22:00:00 8.8 15 Noroeste 24 Oeste 0.2 -- -- 82
2019-12-08 21:00:00 8.6 7 Norte 23 Oeste 0 -- -- 91
2019-12-08 20:00:00 7.8 9 Noroeste 17 Noroeste 0 -- -- 94
2019-12-08 19:00:00 7.9 8 Noroeste 13 Noroeste 0 -- -- 95
2019-12-08 18:00:00 7.9 3 Oeste 8 Noroeste 1.2 -- -- 95
2019-12-08 17:00:00 8.2 0 Calma 4 Norte 1.2 -- -- 94
2019-12-08 16:00:00 8.1 0 Calma 4 Noroeste 1.2 -- -- 93
2019-12-08 15:00:00 8 5 Noroeste 9 Noroeste 0.6 -- -- 90
2019-12-08 14:00:00 7.6 4 Noroeste 8 Noroeste 0 -- -- 88
2019-12-08 13:00:00 7.4 0 Calma 5 Sudeste 0 -- -- 89
2019-12-08 12:00:00 7.1 3 Sudeste 6 Sudeste 0 -- -- 89
2019-12-08 11:00:00 6.2 0 Calma 5 Este 0 -- -- 95
2019-12-08 10:00:00 2.6 0 Calma 4 Oeste 0 -- -- 98
2019-12-08 09:00:00 0.6 0 Calma 4 Oeste 0 -- -- 97
2019-12-08 08:00:00 0.9 2 Noroeste 4 Oeste 0 -- -- 97
2019-12-08 07:00:00 1.2 3 Noroeste 9 Noroeste 0 -- -- 97
2019-12-08 06:00:00 0.8 4 Noroeste 6 Oeste 0 -- -- 96
2019-12-08 05:00:00 0.4 0 Calma 6 Oeste 0 -- -- 95
2019-12-08 04:00:00 0.9 0 Calma 4 Noroeste 0 -- -- 94
2019-12-08 03:00:00 2.1 0 Calma 6 Noroeste 0 -- -- 95
2019-12-08 02:00:00 3 0 Calma 9 Noroeste 0 -- -- 91
2019-12-08 01:00:00 3.8 5 Noroeste 8 Oeste 0 -- -- 94
2019-12-08 00:00:00 4.6 0 Calma 10 Noroeste 0 -- -- 88
2019-12-07 23:00:00 5.3 5 Norte 13 Noroeste 0 -- -- 92
2019-12-07 22:00:00 5.5 4 Norte 11 Noroeste 0 -- -- 90
2019-12-07 21:00:00 6.9 6 Noroeste 12 Noroeste 0 -- -- 89
2019-12-07 20:00:00 6.9 6 Noroeste 9 Noroeste 0 -- -- 88
2019-12-07 19:00:00 6.5 2 Noroeste 6 Oeste 0 -- -- 85
2019-12-07 18:00:00 9.3 5 Noroeste 6 Noroeste 0 -- -- 78
2019-12-07 17:00:00 11.5 5 Noroeste 9 Noroeste 0 -- -- 69
2019-12-07 16:00:00 12.1 4 Sudoeste 12 Oeste 0 -- -- 66
2019-12-07 15:00:00 12 7 Noroeste 12 Noroeste 0 -- -- 68
2019-12-07 14:00:00 11.4 6 Noroeste 12 Noroeste 0 -- -- 68
2019-12-07 13:00:00 10.3 0 Calma 6 Sudeste 0 -- -- 76
2019-12-07 12:00:00 8 0 Calma 7 Noroeste 0 -- -- 84
2019-12-07 11:00:00 5.5 0 Calma 6 Norte 0 -- -- 93
2019-12-07 10:00:00 3.9 0 Calma 3 Noroeste 0 -- -- 94
2019-12-07 09:00:00 1.1 3 Noroeste 7 Noroeste 0 -- -- 97
2019-12-07 08:00:00 0.6 5 Noroeste 8 Noroeste 0 -- -- 96
2019-12-07 07:00:00 0 0 Calma 6 Sudoeste 0 -- -- 95
2019-12-07 06:00:00 1 0 Calma 8 Noroeste 0 -- -- 95
2019-12-07 05:00:00 1.3 0 Calma 8 Noroeste 0 -- -- 95
2019-12-07 04:00:00 1.8 4 Noroeste 8 Norte 0 -- -- 95
2019-12-07 03:00:00 1.3 2 Noroeste 4 Noroeste 0 -- -- 96
2019-12-07 02:00:00 1.6 0 Calma 5 Noroeste 0 -- -- 92
2019-12-07 01:00:00 2.9 5 Noroeste 7 Noroeste 0 -- -- 93
2019-12-07 00:00:00 4.6 5 Noroeste 10 Noroeste 0 -- -- 91
2019-12-06 23:00:00 4.6 5 Noroeste 9 Noroeste 0 -- -- 91
2019-12-06 22:00:00 4.3 4 Noroeste 7 Noroeste 0 -- -- 91
2019-12-06 21:00:00 5.4 5 Noroeste 8 Noroeste 0 -- -- 91
2019-12-06 20:00:00 6.2 3 Noroeste 9 Noroeste 0 -- -- 87
2019-12-06 19:00:00 6.5 0 Calma 5 Noroeste 0 -- -- 85
2019-12-06 18:00:00 9.3 4 Noroeste 6 Noroeste 0 -- -- 77
2019-12-06 17:00:00 11.6 2 Sur 9 Sudeste 0 -- -- 67
2019-12-06 16:00:00 11.9 4 Sur 12 Sudeste 0 -- -- 66
2019-12-06 15:00:00 12.1 6 Sur 12 Sur 0 -- -- 64
2019-12-06 14:00:00 12.1 5 Sur 10 Sur 0 -- -- 66
2019-12-06 13:00:00 10.5 3 Sur 8 Sur 0 -- -- 70
2019-12-06 12:00:00 9.2 0 Calma 7 Sudoeste 0 -- -- 73
2019-12-06 11:00:00 7.2 3 Sudeste 6 Sur 0 -- -- 80
2019-12-06 10:00:00 3.6 2 Sudeste 5 Este 0 -- -- 92
2019-12-06 09:00:00 0.7 0 Calma 8 Noroeste 0 -- -- 95
2019-12-06 08:00:00 -0.5 0 Calma 4 Oeste 0 -- -- 94
2019-12-06 07:00:00 0.4 3 Noroeste 6 Oeste 0 -- -- 95
2019-12-06 06:00:00 0.2 0 Calma 5 Noroeste 0 -- -- 94
2019-12-06 05:00:00 0.7 2 Norte 5 Noroeste 0 -- -- 93
2019-12-06 04:00:00 1.6 4 Norte 11 Noroeste 0 -- -- 93
2019-12-06 03:00:00 2 5 Noroeste 7 Oeste 0 -- -- 92
2019-12-06 02:00:00 2.5 5 Noroeste 8 Noroeste 0 -- -- 89
2019-12-06 01:00:00 2.9 2 Noroeste 9 Noroeste 0 -- -- 87
2019-12-06 00:00:00 3.6 5 Noroeste 9 Noroeste 0 -- -- 87
2019-12-05 23:00:00 4.3 2 Norte 13 Noroeste 0 -- -- 83
2019-12-05 22:00:00 6 8 Noroeste 12 Noroeste 0 -- -- 81
2019-12-05 21:00:00 6.8 7 Noroeste 15 Noroeste 0 -- -- 77
2019-12-05 20:00:00 7.8 11 Noroeste 15 Noroeste 0 -- -- 73
2019-12-05 19:00:00 8.8 9 Noroeste 25 Noroeste 0 -- -- 68
2019-12-05 18:00:00 9.7 11 Noroeste 19 Noroeste 0 -- -- 65
2019-12-05 17:00:00 11.8 10 Noroeste 24 Noroeste 0 -- -- 55
2019-12-05 16:00:00 12.6 13 Noroeste 25 Noroeste 0 -- -- 53
2019-12-05 15:00:00 12.9 16 Noroeste 25 Noroeste 0 -- -- 52
2019-12-05 14:00:00 12.9 15 Noroeste 26 Noroeste 0 -- -- 52
2019-12-05 13:00:00 12.1 11 Noroeste 20 Noroeste 0 -- -- 60
2019-12-05 12:00:00 10.9 12 Noroeste 23 Oeste 0 -- -- 66
2019-12-05 11:00:00 9.2 13 Noroeste 22 Noroeste 0 -- -- 75
2019-12-05 10:00:00 7.2 10 Noroeste 18 Noroeste 0 -- -- 82
2019-12-05 09:00:00 5.6 9 Noroeste 16 Noroeste 0 -- -- 84
2019-12-05 08:00:00 5.8 9 Noroeste 22 Noroeste 0 -- -- 83
2019-12-05 07:00:00 6.7 12 Noroeste 22 Noroeste 0 -- -- 78
2019-12-05 06:00:00 6.9 13 Noroeste 26 Noroeste 0 -- -- 77
2019-12-05 05:00:00 6.9 15 Noroeste 26 Noroeste 0 -- -- 78
2019-12-05 04:00:00 6.9 14 Noroeste 24 Noroeste 0 -- -- 79
2019-12-05 03:00:00 6.4 12 Noroeste 27 Oeste 0 -- -- 80
2019-12-05 02:00:00 6.3 14 Noroeste 27 Noroeste 0 -- -- 80
2019-12-05 01:00:00 6.6 10 Noroeste 29 Noroeste 0 -- -- 81
2019-12-05 00:00:00 7.3 14 Noroeste 39 Noroeste 0 -- -- 80
2019-12-04 23:00:00 7.7 16 Noroeste 35 Noroeste 0 -- -- 81
2019-12-04 22:00:00 8 18 Noroeste 43 Norte 0 -- -- 79
2019-12-04 21:00:00 8.3 17 Noroeste 46 Noroeste 0 -- -- 77
2019-12-04 20:00:00 8.3 23 Noroeste 53 Noroeste 0 -- -- 76
2019-12-04 19:00:00 8.6 29 Norte 53 Norte 0 -- -- 72
2019-12-04 18:00:00 10.4 18 Noroeste 36 Norte 0 -- -- 60
2019-12-04 17:00:00 11.6 18 Noroeste 34 Norte 0 -- -- 61
2019-12-04 16:00:00 11.9 18 Norte 34 Norte 0 -- -- 61
2019-12-04 15:00:00 12.6 15 Noroeste 28 Noroeste 0 -- -- 55
2019-12-04 14:00:00 12.2 14 Noroeste 28 Noroeste 0 -- -- 55
2019-12-04 13:00:00 10.6 18 Noroeste 26 Oeste 0 -- -- 68
2019-12-04 12:00:00 9.2 15 Noroeste 27 Noroeste 0 -- -- 73
2019-12-04 11:00:00 6.3 13 Noroeste 21 Oeste 0 -- -- 80
2019-12-04 10:00:00 5 14 Noroeste 21 Noroeste 0 -- -- 81
2019-12-04 09:00:00 1.6 0 Calma 10 Noroeste 0 -- -- 89
2019-12-04 08:00:00 1.4 6 Noroeste 10 Noroeste 0 -- -- 95
2019-12-04 07:00:00 1.7 5 Noroeste 9 Noroeste 0 -- -- 90
2019-12-04 06:00:00 1.7 5 Noroeste 8 Noroeste 0 -- -- 91
2019-12-04 05:00:00 1.6 3 Norte 9 Noroeste 0 -- -- 89
2019-12-04 04:00:00 2 5 Noroeste 10 Noroeste 0 -- -- 91
2019-12-04 03:00:00 1.5 4 Noroeste 8 Noroeste -- -- -- 91
2019-12-04 02:00:00 1.1 4 Noroeste 8 Noroeste 0 -- -- 92
2019-12-04 01:00:00 1.1 4 Noroeste 10 Noroeste 0 -- -- 92
2019-12-04 00:00:00 1 5 Noroeste 7 Noroeste 0 -- -- 93
2019-12-03 23:00:00 0.7 4 Noroeste 5 Norte 0 -- -- 93
2019-12-03 22:00:00 1 4 Norte 6 Oeste 0 -- -- 90
2019-12-03 21:00:00 2.1 4 Oeste 7 Noroeste 0 -- -- 88
2019-12-03 20:00:00 2.6 4 Noroeste 6 Noroeste 0 -- -- 87
2019-12-03 19:00:00 3.2 0 Calma 8 Noroeste 0 -- -- 83
2019-12-03 18:00:00 4.9 4 Noroeste 10 Oeste 0 -- -- 78
2019-12-03 17:00:00 6.6 7 Noroeste 17 Noroeste 0 -- -- 69
2019-12-03 16:00:00 7.3 9 Noroeste 17 Noroeste 0 -- -- 66
2019-12-03 15:00:00 7.5 9 Noroeste 14 Noroeste 0 -- -- 65
2019-12-03 14:00:00 7.4 8 Norte 19 Noroeste 0 -- -- 67
2019-12-03 13:00:00 7.7 7 Noroeste 21 Norte 0 -- -- 67
2019-12-03 12:00:00 6.8 13 Noroeste 22 Norte 0 -- -- 69
2019-12-03 11:00:00 6.2 11 Norte 23 Noroeste 0 -- -- 73
2019-12-03 10:00:00 5.2 13 Noroeste 22 Norte 0 -- -- 75
2019-12-03 09:00:00 3.7 13 Noroeste 23 Oeste 0 -- -- 80
2019-12-03 08:00:00 3.3 14 Noroeste 24 Noroeste 0 -- -- 81
2019-12-03 07:00:00 3.7 12 Noroeste 25 Noroeste 0 -- -- 80
2019-12-03 06:00:00 3.6 13 Noroeste 21 Noroeste 0 -- -- 80
2019-12-03 05:00:00 3.3 11 Noroeste 26 Noroeste 0 -- -- 80
2019-12-03 04:00:00 3.3 13 Noroeste 27 Noroeste 0 -- -- 81
2019-12-03 03:00:00 3.9 15 Noroeste 27 Noroeste 0 -- -- 80
2019-12-03 02:00:00 4.4 16 Noroeste 32 Noroeste 0 -- -- 80
2019-12-03 01:00:00 4.9 21 Noroeste 35 Noroeste 0 -- -- 76
2019-12-03 00:00:00 5.3 17 Noroeste 29 Noroeste 0 -- -- 76
2019-12-02 23:00:00 5.4 11 Noroeste 31 Norte 0 -- -- 74
2019-12-02 22:00:00 5.8 17 Noroeste 34 Noroeste 0 -- -- 70
2019-12-02 21:00:00 5.9 18 Noroeste 35 Noroeste 0 -- -- 73
2019-12-02 20:00:00 5.9 20 Noroeste 35 Noroeste 0 -- -- 77
2019-12-02 19:00:00 6.3 17 Noroeste 33 Noroeste 0 -- -- 78
2019-12-02 18:00:00 7.2 14 Noroeste 38 Noroeste 0 -- -- 76
2019-12-02 17:00:00 8.3 23 Noroeste 40 Noroeste 0 -- -- 70
2019-12-02 16:00:00 9.3 21 Norte 40 Norte 0 -- -- 69
2019-12-02 15:00:00 10.1 19 Norte 39 Norte 0 -- -- 68
2019-12-02 14:00:00 10.7 19 Norte 38 Norte 0 -- -- 66
2019-12-02 13:00:00 10.5 21 Norte 41 Noroeste 0 -- -- 69
2019-12-02 12:00:00 10.2 21 Noroeste 35 Noroeste 0 -- -- 71
2019-12-02 11:00:00 9.9 19 Noroeste 31 Noroeste 0 -- -- 68
2019-12-02 10:00:00 8.8 19 Noroeste 33 Norte 0 -- -- 74
2019-12-02 09:00:00 7.6 17 Norte 31 Noroeste 0 -- -- 78
2019-12-02 08:00:00 7 14 Norte 30 Norte 0 -- -- 81
2019-12-02 07:00:00 7 6 Norte 15 Noroeste 0 -- -- 81
2019-12-02 06:00:00 6.6 4 Oeste 13 Nordeste 0 -- -- 81
2019-12-02 05:00:00 6.7 4 Oeste 12 Norte 0 -- -- 80
2019-12-02 04:00:00 7.4 6 Noroeste 12 Oeste 0 -- -- 77
2019-12-02 03:00:00 6.6 4 Sudoeste 9 Oeste 0 -- -- 84
2019-12-02 02:00:00 7.1 5 Noroeste 23 Noroeste 0 -- -- 82
2019-12-02 01:00:00 7.3 14 Noroeste 30 Noroeste 0 -- -- 84
2019-12-02 00:00:00 7.2 18 Noroeste 30 Noroeste 0 -- -- 84
2019-12-01 23:00:00 6.7 10 Noroeste 19 Noroeste 0 -- -- 85
2019-12-01 22:00:00 7.4 12 Noroeste 21 Noroeste 0 -- -- 84
2019-12-01 21:00:00 7.3 7 Noroeste 13 Noroeste 0 -- -- 86
2019-12-01 20:00:00 7.2 7 Noroeste 14 Noroeste 0 -- -- 89
2019-12-01 19:00:00 8.1 8 Noroeste 13 Noroeste 0 -- -- 89
2019-12-01 18:00:00 8.9 7 Noroeste 13 Noroeste 0 -- -- 86
2019-12-01 17:00:00 9.5 6 Noroeste 13 Noroeste 0 -- -- 82
2019-12-01 16:00:00 10 6 Oeste 13 Oeste 0 -- -- 81
2019-12-01 15:00:00 9.8 7 Noroeste 14 Oeste 0 -- -- 83
2019-12-01 14:00:00 9.9 4 Oeste 10 Noroeste 0 -- -- 80
2019-12-01 13:00:00 8.3 3 Oeste 9 Oeste 0 -- -- 88
2019-12-01 12:00:00 9.6 5 Sur 8 Sur 0 -- -- 81
2019-12-01 11:00:00 8.2 2 Sudoeste 7 Oeste 0 -- -- 88
2019-12-01 10:00:00 5.4 0 Calma 5 Sudoeste 0 -- -- 96
2019-12-01 09:00:00 4.5 3 Norte 7 Norte 0 -- -- 96
2019-12-01 08:00:00 3.6 5 Noroeste 8 Noroeste 0 -- -- 96
2019-12-01 07:00:00 3.6 4 Noroeste 9 Noroeste 0 -- -- 97
2019-12-01 06:00:00 3 4 Oeste 6 Oeste 0 -- -- 97
2019-12-01 05:00:00 2.7 3 Noroeste 8 Noroeste 0 -- -- 95
2019-12-01 04:00:00 3.9 3 Oeste 8 Noroeste 0 -- -- 97
2019-12-01 03:00:00 4 5 Oeste 7 Noroeste 0 -- -- 96
2019-12-01 02:00:00 4.9 0 Calma 4 Sudeste 0 -- -- 96
2019-12-01 01:00:00 5.7 2 Oeste 4 Oeste 0 -- -- 94
2019-12-01 00:00:00 7.2 0 Calma 7 Sudeste 0 -- -- 94
2019-11-30 23:00:00 7.8 0 Calma 8 Noroeste 0 -- -- 94
2019-11-30 22:00:00 8.2 2 Norte 12 Noroeste 0 -- -- 92
2019-11-30 21:00:00 8.5 4 Oeste 13 Este -- -- -- 91
2019-11-30 20:00:00 8.7 5 Este 23 Noroeste 1.2 -- -- 89
2019-11-30 19:00:00 8.8 13 Noroeste 31 Noroeste 2.8 -- -- 91
2019-11-30 18:00:00 9.3 13 Norte 35 Norte 6.6 -- -- 88
2019-11-30 17:00:00 13.3 8 Sudeste 32 Sudeste 0.4 -- -- 77
2019-11-30 16:00:00 13.8 17 Sudeste 36 Sudeste 0 -- -- 70
2019-11-30 15:00:00 14.2 22 Sudeste 39 Sudeste 0 -- -- 69
2019-11-30 14:00:00 14.8 26 Sudeste 41 Sudeste 0 -- -- 66
2019-11-30 13:00:00 14.5 24 Sudeste 38 Sudeste 0 -- -- 64
2019-11-30 12:00:00 13.8 19 Sudeste 34 Sudeste 0 -- -- 68
2019-11-30 11:00:00 13 14 Sudeste 24 Sudeste 0 -- -- 69
2019-11-30 10:00:00 11 8 Sudeste 14 Sudeste 0 -- -- 76
2019-11-30 09:00:00 8.4 5 Sudeste 14 Sur 0 -- -- 83
2019-11-30 08:00:00 6.3 0 Calma 8 Sur 0 -- -- 90
2019-11-30 07:00:00 6.4 0 Calma 6 Sudoeste 0 -- -- 89
2019-11-30 06:00:00 6.7 2 Sudoeste 6 Oeste 0 -- -- 88
2019-11-30 05:00:00 5.7 2 Sur 8 Oeste 0 -- -- 94
2019-11-30 04:00:00 4.9 0 Calma 7 Oeste 0 -- -- 95
2019-11-30 03:00:00 4.1 0 Calma 8 Oeste 0 -- -- 92
2019-11-30 02:00:00 4.1 4 Noroeste 6 Noroeste 0 -- -- 94
2019-11-30 01:00:00 4.6 0 Calma 6 Oeste 0 -- -- 90
2019-11-30 00:00:00 5.7 2 Oeste 7 Noroeste 0 -- -- 89
2019-11-29 23:00:00 6.2 4 Noroeste 7 Noroeste 0 -- -- 87
2019-11-29 22:00:00 6 3 Noroeste 6 Noroeste 0 -- -- 88
2019-11-29 21:00:00 6.7 6 Noroeste 8 Noroeste 0 -- -- 88
2019-11-29 20:00:00 7.6 0 Calma 8 Noroeste 0 -- -- 84
2019-11-29 19:00:00 8.2 0 Calma 5 Este 0 -- -- 84
2019-11-29 18:00:00 10.6 2 Sudeste 5 Sudeste 0 -- -- 76
2019-11-29 17:00:00 13.8 3 Norte 13 Norte 0 -- -- 60
2019-11-29 16:00:00 14.7 7 Norte 15 Norte 0 -- -- 56
2019-11-29 15:00:00 15.3 8 Norte 22 Norte 0 -- -- 57
2019-11-29 14:00:00 15.4 13 Norte 23 Norte 0 -- -- 56
2019-11-29 13:00:00 15.1 11 Noroeste 21 Oeste 0 -- -- 60
2019-11-29 12:00:00 14.4 11 Norte 18 Noroeste 0 -- -- 65
2019-11-29 11:00:00 13.1 7 Norte 16 Noroeste 0 -- -- 74
2019-11-29 10:00:00 12.4 8 Noroeste 14 Noroeste 0 -- -- 77
2019-11-29 09:00:00 11 5 Noroeste 12 Norte 0 -- -- 87
2019-11-29 08:00:00 11 7 Norte 14 Noroeste 0 -- -- 89
2019-11-29 07:00:00 11 6 Noroeste 10 Noroeste 0 -- -- 93
2019-11-29 06:00:00 10.6 3 Noroeste 12 Noroeste 0 -- -- 94
2019-11-29 05:00:00 10.8 7 Noroeste 11 Noroeste 0 -- -- 93
2019-11-29 04:00:00 10.6 0 Calma 5 Noroeste 0 -- -- 92
2019-11-29 03:00:00 10.8 4 Noroeste 8 Noroeste 0 -- -- 91
2019-11-29 02:00:00 10.5 0 Calma 8 Noroeste 0 -- -- 92
2019-11-29 01:00:00 10.3 3 Sudoeste 8 Sudoeste 0 -- -- 93
2019-11-29 00:00:00 9.8 2 Norte 5 Sudoeste 0 -- -- 94
2019-11-28 23:00:00 9.9 2 Este 5 Este 0 -- -- 92
2019-11-28 22:00:00 10.5 0 Calma 5 Este 0 -- -- 92
2019-11-28 21:00:00 10.9 0 Calma 9 Sudeste 0 -- -- 91
2019-11-28 20:00:00 11.3 5 Este 8 Este 0 -- -- 89
2019-11-28 19:00:00 11.7 0 Calma 9 Este 0.2 -- -- 86
2019-11-28 18:00:00 12.3 3 Este 11 Este 0.2 -- -- 84
2019-11-28 17:00:00 13.7 5 Este 11 Este 0 -- -- 76
2019-11-28 16:00:00 14.3 6 Sudeste 14 Sudeste 0 -- -- 71
2019-11-28 15:00:00 14 10 Sudeste 16 Sudeste 0 -- -- 73
2019-11-28 14:00:00 14.5 6 Sudeste 15 Sudeste 0 -- -- 66
2019-11-28 13:00:00 13.4 0 Calma 9 Sudoeste 0 -- -- 79
2019-11-28 12:00:00 10.9 0 Calma 9 Noroeste 0 -- -- 93
2019-11-28 11:00:00 9.4 0 Calma 5 Oeste 0 -- -- 95
2019-11-28 10:00:00 8.3 0 Calma 8 Sudoeste 0 -- -- 96
2019-11-28 09:00:00 6.9 0 Calma 6 Norte 0 -- -- 97
2019-11-28 08:00:00 4.9 0 Calma 4 Oeste 0 -- -- 96
2019-11-28 07:00:00 5.4 0 Calma 7 Este 0 -- -- 96
2019-11-28 06:00:00 6.6 0 Calma 5 Norte 0 -- -- 95
2019-11-28 05:00:00 7.4 2 Noroeste 10 Noroeste 0 -- -- 96
2019-11-28 04:00:00 7.6 0 Calma 9 Sudeste 0 -- -- 95
2019-11-28 03:00:00 7.6 3 Sur 6 Sudeste 0 -- -- 95
2019-11-28 02:00:00 7.8 3 Noroeste 10 Noroeste 0 -- -- 96
2019-11-28 01:00:00 7.8 3 Noroeste 6 Noroeste 0 -- -- 96
2019-11-28 00:00:00 8 3 Noroeste 6 Noroeste 0 -- -- 96
2019-11-27 23:00:00 9.1 0 Calma 5 Sudeste 0 -- -- 94
2019-11-27 22:00:00 9.3 4 Este 10 Noroeste 0.2 -- -- 95
2019-11-27 21:00:00 9.5 2 Este 12 Noroeste 0.4 -- -- 94
2019-11-27 20:00:00 9.7 6 Norte 11 Noroeste 1.4 -- -- 93
2019-11-27 19:00:00 10 4 Sudeste 7 Sudeste 0.8 -- -- 90
2019-11-27 18:00:00 10.7 4 Nordeste 9 Norte 0.6 -- -- 84
2019-11-27 17:00:00 12.4 3 Noroeste 10 Noroeste 0.2 -- -- 75
2019-11-27 16:00:00 13.3 4 Sudeste 13 Sur 0 -- -- 62
2019-11-27 15:00:00 14.3 6 Sudeste 10 Sudeste 0 -- -- 55
2019-11-27 14:00:00 13.9 4 Sur 14 Sudeste 0 -- -- 59
2019-11-27 06:00:00 8.6 3 Norte 17 Noroeste 0 -- -- 78
2019-11-27 05:00:00 9.4 8 Noroeste 16 Noroeste 0 -- -- 76
2019-11-27 04:00:00 10.6 10 Noroeste 20 Noroeste 0 -- -- 75
2019-11-27 03:00:00 10.5 5 Oeste 12 Oeste 0 -- -- 91
2019-11-27 02:00:00 10.9 0 Calma 8 Sudeste 0 -- -- 89
2019-11-27 01:00:00 12 3 Oeste 19 Noroeste 0.6 -- -- 87
2019-11-27 00:00:00 13 8 Noroeste 20 Noroeste 1.4 -- -- 84
2019-11-26 23:00:00 14.7 9 Sur 22 Sur 0 -- -- 73
2019-11-26 22:00:00 14.2 6 Sudeste 33 Sudeste 0 -- -- 74
2019-11-26 21:00:00 14.4 15 Sudeste 40 Sudeste 0 -- -- 73
2019-11-26 20:00:00 13.9 19 Sudeste 43 Sudeste 0 -- -- 75
2019-11-26 19:00:00 14.3 19 Sudeste 39 Sudeste 0 -- -- 73
2019-11-26 18:00:00 13.9 19 Sudeste 30 Sudeste 0 -- -- 76
2019-11-26 17:00:00 14.6 17 Sudeste 44 Sudeste 0 -- -- 72
2019-11-26 16:00:00 15.2 18 Sudeste 37 Sudeste 0 -- -- 71
2019-11-26 15:00:00 15.6 14 Sudeste 34 Sudeste 0 -- -- 68
2019-11-26 14:00:00 15.8 15 Sudeste 26 Sudeste 0 -- -- 66
2019-11-26 13:00:00 13.7 13 Sudeste 22 Este 0 -- -- 73
2019-11-26 12:00:00 12.4 12 Sudeste 21 Sudeste 0 -- -- 77
2019-11-26 11:00:00 11.8 4 Sudeste 9 Sur 0 -- -- 82
2019-11-26 10:00:00 8.1 4 Norte 9 Norte 0 -- -- 94
2019-11-26 09:00:00 6 2 Sudeste 6 Noroeste 0 -- -- 97
2019-11-26 08:00:00 4.9 3 Oeste 8 Noroeste 0 -- -- 96
2019-11-26 07:00:00 5.2 3 Este 5 Sudoeste 0 -- -- 94
2019-11-26 06:00:00 6.1 5 Oeste 8 Noroeste 0 -- -- 95
2019-11-26 05:00:00 6.2 3 Oeste 9 Norte 0 -- -- 95
2019-11-26 04:00:00 5.6 0 Calma 11 Noroeste 0 -- -- 95
2019-11-26 03:00:00 5.4 6 Noroeste 8 Noroeste 0 -- -- 96
2019-11-26 02:00:00 5.6 4 Noroeste 7 Noroeste 0 -- -- 95
2019-11-26 01:00:00 5.6 3 Noroeste 8 Oeste 0 -- -- 95
2019-11-26 00:00:00 5.7 4 Noroeste 8 Oeste 0 -- -- 96
2019-11-25 23:00:00 6.1 2 Oeste 5 Oeste 0 -- -- 93
2019-11-25 22:00:00 7.2 3 Noroeste 6 Noroeste 0 -- -- 95
2019-11-25 21:00:00 7.6 0 Calma 5 Oeste 0 -- -- 93
2019-11-25 20:00:00 8.5 0 Calma 4 Sudoeste 0 -- -- 92
2019-11-25 19:00:00 9.9 0 Calma 6 Este 0 -- -- 89
2019-11-25 18:00:00 11.2 3 Sudeste 5 Este 0 -- -- 85
2019-11-25 17:00:00 13.5 0 Calma 7 Sudoeste 0 -- -- 75
2019-11-25 16:00:00 14.6 3 Sudoeste 10 Oeste 0.2 -- -- 71
2019-11-25 15:00:00 14.7 4 Oeste 10 Oeste 0 -- -- 69
2019-11-25 14:00:00 14.4 0 Calma 8 Noroeste 0 -- -- 70
2019-11-25 13:00:00 13.3 3 Sudeste 8 Sur 0 -- -- 69
2019-11-25 12:00:00 12.4 0 Calma 6 Noroeste 0 -- -- 75
2019-11-25 11:00:00 10.6 0 Calma 10 Oeste 0 -- -- 80
2019-11-25 10:00:00 7.8 0 Calma 8 Oeste 0 -- -- 92
2019-11-25 09:00:00 5.3 4 Noroeste 8 Noroeste 0 -- -- 95
2019-11-25 08:00:00 5.1 3 Noroeste 12 Noroeste 0 -- -- 94
2019-11-25 07:00:00 5.4 6 Noroeste 12 Oeste 0 -- -- 96
2019-11-25 06:00:00 5.8 2 Noroeste 8 Noroeste 0 -- -- 96
2019-11-25 05:00:00 5.6 4 Noroeste 6 Noroeste 0 -- -- 95
2019-11-25 04:00:00 6.5 0 Calma 5 Noroeste 0 -- -- 95
2019-11-25 03:00:00 6.4 4 Oeste 7 Oeste 0 -- -- 96
2019-11-25 02:00:00 6 2 Norte 5 Sur 0.2 -- -- 95
2019-11-25 01:00:00 5.8 2 Sudeste 5 Sudeste 0 -- -- 95
2019-11-25 00:00:00 6.5 0 Calma 4 Oeste 0.2 -- -- 94
2019-11-24 23:00:00 6.5 0 Calma 8 Noroeste 1.6 -- -- 94
2019-11-24 22:00:00 6 3 Noroeste 6 Oeste 0 -- -- 93
2019-11-24 21:00:00 5.8 0 Calma 6 Oeste 0 -- -- 93
2019-11-24 20:00:00 5.7 3 Sur 6 Oeste 0 -- -- 92
2019-11-24 19:00:00 6.6 3 Este 7 Este 0 -- -- 89
2019-11-24 18:00:00 8.7 0 Calma 6 Noroeste 0 -- -- 83
2019-11-24 17:00:00 10.5 3 Noroeste 10 Noroeste 0 -- -- 74
2019-11-24 16:00:00 10.7 4 Norte 19 Noroeste 0 -- -- 70
2019-11-24 15:00:00 10.5 9 Noroeste 22 Noroeste 0 -- -- 70
2019-11-24 14:00:00 10.3 12 Noroeste 29 Noroeste 0 -- -- 75
2019-11-24 13:00:00 10 16 Noroeste 28 Noroeste 0 -- -- 72
2019-11-24 12:00:00 8.1 4 Norte 9 Norte 0 -- -- 81
2019-11-24 11:00:00 8 4 Norte 22 Oeste 0 -- -- 77
2019-11-24 10:00:00 7.5 10 Oeste 19 Oeste 0 -- -- 77
2019-11-24 09:00:00 5.8 0 Calma 7 Norte 0 -- -- 90
2019-11-24 08:00:00 6.2 5 Noroeste 8 Noroeste 0 -- -- 87
2019-11-24 07:00:00 6.3 0 Calma 12 Oeste 0 -- -- 87
2019-11-24 06:00:00 6.8 8 Noroeste 19 Noroeste 0 -- -- 85
2019-11-24 05:00:00 6.9 9 Noroeste 18 Noroeste 0 -- -- 84
2019-11-24 04:00:00 7.1 11 Noroeste 22 Oeste 0.2 -- -- 81
2019-11-24 03:00:00 7.4 16 Noroeste 30 Oeste 0.2 -- -- 81
2019-11-24 02:00:00 7.8 21 Noroeste 33 Noroeste 0 -- -- 76
2019-11-24 01:00:00 7.7 9 Noroeste 26 Noroeste 0 -- -- 80
2019-11-24 00:00:00 7.9 17 Noroeste 29 Noroeste 0 -- -- 77
2019-11-23 23:00:00 7.6 14 Noroeste 37 Oeste 0 -- -- 78
2019-11-23 22:00:00 8.1 22 Noroeste 31 Noroeste 0 -- -- 76
2019-11-23 21:00:00 7 9 Noroeste 18 Noroeste 0 -- -- 83
2019-11-23 20:00:00 7 7 Noroeste 15 Noroeste -- -- -- 83
2019-11-23 19:00:00 7.8 10 Noroeste 30 Noroeste 0.2 -- -- 81
2019-11-23 18:00:00 8.2 22 Noroeste 40 Noroeste 0 -- -- 78
2019-11-23 17:00:00 8.8 15 Noroeste 26 Norte 0 -- -- 78
2019-11-23 16:00:00 9.8 18 Noroeste 54 Noroeste 0 -- -- 71
2019-11-23 15:00:00 10 18 Noroeste 33 Noroeste 0 -- -- 71
2019-11-23 14:00:00 9 18 Noroeste 49 Noroeste 0 -- -- 74
2019-11-23 13:00:00 9.2 29 Noroeste 57 Noroeste 0 -- -- 73
2019-11-23 12:00:00 9 36 Noroeste 59 Noroeste 0 -- -- 74
2019-11-23 11:00:00 7.7 18 Oeste 38 Noroeste 0.4 -- -- 83
2019-11-23 10:00:00 7 28 Noroeste 44 Noroeste 1 -- -- 85
2019-11-23 09:00:00 7.3 27 Noroeste 41 Noroeste 0 -- -- 84
2019-11-23 08:00:00 7.5 26 Noroeste 38 Oeste 0.2 -- -- 82
2019-11-23 07:00:00 7.2 2 Sudoeste 25 Noroeste 0.8 -- -- 87
2019-11-23 06:00:00 7.7 21 Noroeste 34 Oeste 1.6 -- -- 84
2019-11-23 05:00:00 8.1 6 Noroeste 22 Noroeste 0 -- -- 84
2019-11-23 04:00:00 7.4 6 Sudeste 12 Este 0 -- -- 87
2019-11-23 03:00:00 7 3 Este 10 Este 0 -- -- 87
2019-11-23 02:00:00 7.9 6 Nordeste 12 Nordeste 0 -- -- 85
2019-11-23 01:00:00 8 5 Este 12 Sudeste 0 -- -- 87
2019-11-23 00:00:00 7.6 4 Este 10 Sudeste 0 -- -- 90
2019-11-22 23:00:00 8.5 4 Este 20 Sudeste 0 -- -- 87
2019-11-22 22:00:00 9.8 13 Sudeste 26 Sudeste 0 -- -- 87
2019-11-22 21:00:00 9.7 16 Sudeste 31 Sur 0 -- -- 88
2019-11-22 20:00:00 10.1 20 Sudeste 51 Sudeste 0.2 -- -- 87
2019-11-22 19:00:00 10.5 27 Sudeste 50 Sudeste 0 -- -- 82
2019-11-22 18:00:00 10.2 30 Sudeste 49 Este 0 -- -- 83
2019-11-22 17:00:00 9.5 28 Sudeste 51 Sudeste 0.2 -- -- 86
2019-11-22 16:00:00 9.6 29 Sudeste 55 Sudeste 0 -- -- 81
2019-11-22 15:00:00 9.5 29 Sudeste 57 Sudeste 0 -- -- 81
2019-11-22 14:00:00 9.4 33 Sudeste 59 Sudeste 0 -- -- 80
2019-11-22 13:00:00 9 31 Sudeste 60 Sudeste 0.2 -- -- 83
2019-11-22 12:00:00 8.4 29 Sudeste 51 Sudeste 0.4 -- -- 85
2019-11-22 11:00:00 7.8 28 Sudeste 45 Sudeste 0.6 -- -- 86
2019-11-22 10:00:00 7.6 25 Sudeste 43 Sudeste 0.8 -- -- 84
2019-11-22 09:00:00 7.7 21 Sudeste 36 Sudeste 0.2 -- -- 82
2019-11-22 08:00:00 7.4 22 Sudeste 37 Sudeste 0.4 -- -- 82
2019-11-22 07:00:00 7.7 21 Sudeste 35 Sudeste 0 -- -- 78
2019-11-22 06:00:00 7.3 16 Sudeste 27 Sudeste 0 -- -- 81
2019-11-22 05:00:00 6.7 10 Sudeste 24 Este 0 -- -- 82
2019-11-22 04:00:00 6.1 9 Sudeste 24 Sur 0 -- -- 85
2019-11-22 03:00:00 6 10 Sudeste 21 Sudeste 0 -- -- 86
2019-11-22 02:00:00 6.1 6 Sur 17 Sudeste 0 -- -- 86
2019-11-22 01:00:00 5.9 6 Sudeste 12 Sur 0 -- -- 90
2019-11-22 00:00:00 4.9 6 Sudeste 13 Sudeste 0 -- -- 92
2019-11-21 23:00:00 4.4 2 Sudeste 9 Sur -- -- -- 90
2019-11-21 22:00:00 4.1 2 Sudoeste 7 Sudoeste 0 -- -- 90
2019-11-21 21:00:00 5 3 Sudeste 6 Sudeste 0 -- -- 87
2019-11-21 20:00:00 6.3 5 Sudeste 9 Este 0 -- -- 84
2019-11-21 19:00:00 7.1 2 Este 12 Sudeste 0 -- -- 82
2019-11-21 18:00:00 9.2 9 Sudeste 15 Sudeste 0 -- -- 75
2019-11-21 17:00:00 10.3 8 Sudeste 22 Sudeste 0 -- -- 73
2019-11-21 16:00:00 10.8 13 Sudeste 23 Sur 0 -- -- 67
2019-11-21 15:00:00 10.6 10 Sudeste 22 Sudeste 0 -- -- 70
2019-11-21 14:00:00 10.3 12 Sudeste 26 Sudeste 0 -- -- 70
2019-11-21 13:00:00 10.2 14 Sudeste 31 Sudeste 0 -- -- 71
2019-11-21 12:00:00 9.8 14 Sudeste 26 Sudeste 0 -- -- 70
2019-11-21 11:00:00 7.6 11 Sudeste 21 Sudeste 0 -- -- 82
2019-11-21 10:00:00 7 6 Sudeste 14 Sudeste 0 -- -- 86
2019-11-21 09:00:00 5.3 4 Sudeste 10 Sudeste 0 -- -- 92
2019-11-21 08:00:00 4.7 5 Sudeste 12 Sudeste 0 -- -- 92
2019-11-21 07:00:00 4.1 9 Sudeste 13 Este 0 -- -- 94
2019-11-21 06:00:00 4.7 7 Sudeste 13 Este 0 -- -- 92
2019-11-21 05:00:00 5.1 8 Este 14 Sudeste 0 -- -- 91
2019-11-21 04:00:00 5.5 8 Sudeste 16 Sudeste 0 -- -- 91
2019-11-21 03:00:00 5.8 6 Este 17 Sudeste 0 -- -- 91
2019-11-21 02:00:00 6.3 11 Sudeste 19 Sudeste 0 -- -- 90
2019-11-21 01:00:00 5.9 8 Sudeste 18 Sudeste 0.2 -- -- 92
2019-11-21 00:00:00 5.8 10 Sudeste 23 Sudeste 1 -- -- 91
2019-11-20 23:00:00 5.9 10 Sudeste 22 Sudeste 0.6 -- -- 89
2019-11-20 22:00:00 6.3 12 Sudeste 23 Sudeste 0.6 -- -- 85
2019-11-20 21:00:00 7.2 8 Sudeste 22 Sudeste 0 -- -- 77
2019-11-20 20:00:00 8 9 Sudeste 27 Sudeste 0 -- -- 69
2019-11-20 19:00:00 8.2 12 Sudeste 20 Sudeste 0 -- -- 64
2019-11-20 18:00:00 8.2 8 Sudeste 23 Sudeste 0 -- -- 70
2019-11-20 17:00:00 9.1 12 Sudeste 33 Sudeste 0 -- -- 64
2019-11-20 16:00:00 9.4 16 Sudeste 32 Sudeste 0 -- -- 63
2019-11-20 15:00:00 9.5 17 Sudeste 32 Este 0 -- -- 62
2019-11-20 14:00:00 9.3 19 Sudeste 32 Sudeste 0 -- -- 63
2019-11-20 13:00:00 9.2 21 Sudeste 35 Sudeste 0 -- -- 64
2019-11-20 12:00:00 8.1 13 Sudeste 30 Sudeste 0 -- -- 71
2019-11-20 11:00:00 4.9 4 Sudeste 8 Sudeste 0 -- -- 82
2019-11-20 10:00:00 2.3 0 Calma 6 Oeste 0 -- -- 93
2019-11-20 09:00:00 0 0 Calma 7 Oeste 0 -- -- 95
2019-11-20 08:00:00 -1.1 0 Calma 5 Noroeste 0 -- -- 94
2019-11-20 07:00:00 -0.4 4 Noroeste 5 Noroeste 0 -- -- 95
2019-11-20 06:00:00 -0.1 0 Calma 5 Noroeste 0 -- -- 94
2019-11-20 05:00:00 0.4 4 Oeste 6 Oeste 0 -- -- 95
2019-11-20 04:00:00 -0.3 0 Calma 3 Oeste 0 -- -- 95
2019-11-20 03:00:00 0.2 0 Calma 5 Nordeste 0 -- -- 93
2019-11-20 02:00:00 1 3 Oeste 8 Noroeste 0 -- -- 90
2019-11-20 01:00:00 1.1 3 Noroeste 5 Oeste 0 -- -- 94
2019-11-20 00:00:00 1.5 0 Calma 6 Oeste 0 -- -- 92
2019-11-19 23:00:00 1.6 3 Noroeste 5 Oeste 0 -- -- 92
2019-11-19 22:00:00 2.2 2 Noroeste 4 Noroeste 0 -- -- 92
2019-11-19 21:00:00 2.7 0 Calma 6 Noroeste 0 -- -- 89
2019-11-19 20:00:00 3.6 0 Calma 5 Sur 0 -- -- 86
2019-11-19 19:00:00 4.6 0 Calma 3 Noroeste 0 -- -- 83
2019-11-19 18:00:00 7.7 0 Calma 9 Noroeste 0 -- -- 70
2019-11-19 17:00:00 10.5 6 Oeste 12 Oeste 0 -- -- 54
2019-11-19 16:00:00 10.8 9 Noroeste 20 Noroeste 0 -- -- 55
2019-11-19 15:00:00 10.9 9 Noroeste 27 Noroeste 0 -- -- 56
2019-11-19 14:00:00 10.8 12 Noroeste 28 Noroeste 0 -- -- 56
2019-11-19 13:00:00 10 14 Noroeste 24 Noroeste 0 -- -- 58
2019-11-19 12:00:00 9.3 14 Noroeste 27 Noroeste 0 -- -- 62
2019-11-19 11:00:00 7.6 14 Noroeste 23 Noroeste 0 -- -- 72
2019-11-19 10:00:00 6.3 12 Noroeste 23 Oeste 0 -- -- 78
2019-11-19 09:00:00 4.9 3 Sudoeste 20 Norte 0 -- -- 80
2019-11-19 08:00:00 3 10 Noroeste 20 Noroeste 0 -- -- 87
2019-11-19 07:00:00 3.7 12 Noroeste 21 Noroeste 0 -- -- 82
2019-11-19 06:00:00 2.2 10 Noroeste 24 Noroeste 0 -- -- 87
2019-11-19 05:00:00 1.9 7 Norte 12 Noroeste 0 -- -- 87
2019-11-19 04:00:00 2 7 Norte 11 Norte 0 -- -- 87
2019-11-19 03:00:00 2.5 4 Noroeste 12 Noroeste 0 -- -- 83
2019-11-19 02:00:00 2.3 3 Oeste 9 Noroeste 0 -- -- 86
2019-11-19 01:00:00 2.9 0 Calma 12 Oeste 0 -- -- 82
2019-11-19 00:00:00 3.9 7 Oeste 18 Noroeste 0 -- -- 80
2019-11-18 23:00:00 4.2 4 Oeste 23 Norte 0 -- -- 79
2019-11-18 22:00:00 5.1 13 Noroeste 31 Noroeste 0 -- -- 76
2019-11-18 21:00:00 5.2 12 Noroeste 23 Noroeste 0 -- -- 77
2019-11-18 20:00:00 5.8 9 Noroeste 24 Noroeste 0 -- -- 75
2019-11-18 19:00:00 5.8 11 Noroeste 22 Noroeste 0 -- -- 74
2019-11-18 18:00:00 6.1 12 Noroeste 24 Noroeste 0 -- -- 71
2019-11-18 17:00:00 6.7 11 Noroeste 28 Noroeste 0 -- -- 69
2019-11-18 16:00:00 6.8 16 Norte 45 Noroeste 0 -- -- 67
2019-11-18 15:00:00 7.6 19 Norte 38 Norte 0 -- -- 65
2019-11-18 14:00:00 8.3 22 Norte 38 Norte 0 -- -- 62
2019-11-18 13:00:00 8.4 19 Norte 40 Noroeste 0 -- -- 63
2019-11-18 12:00:00 7.7 18 Norte 39 Noroeste 0 -- -- 68
2019-11-18 11:00:00 6.6 16 Noroeste 33 Noroeste 0 -- -- 70
2019-11-18 10:00:00 6.6 12 Noroeste 22 Noroeste 0 -- -- 74
2019-11-18 09:00:00 5.2 14 Noroeste 27 Noroeste 0 -- -- 80
2019-11-18 08:00:00 5.2 15 Noroeste 25 Noroeste 0 -- -- 80
2019-11-18 07:00:00 5.3 12 Noroeste 23 Norte 0 -- -- 81
2019-11-18 06:00:00 5.4 12 Norte 33 Noroeste 0 -- -- 81
2019-11-18 05:00:00 4.9 9 Oeste 20 Oeste 0 -- -- 86
2019-11-18 04:00:00 5.4 11 Noroeste 29 Noroeste 0 -- -- 88
2019-11-18 03:00:00 5.5 8 Oeste 23 Noroeste 0 -- -- 87
2019-11-18 02:00:00 6 12 Noroeste 18 Noroeste 0 -- -- 88
2019-11-18 01:00:00 6.3 12 Noroeste 18 Oeste 0.2 -- -- 89
2019-11-18 00:00:00 6.5 3 Oeste 5 Oeste 0.8 -- -- 96
2019-11-17 23:00:00 6.4 0 Calma 3 Noroeste 0.2 -- -- 96
2019-11-17 22:00:00 6.5 0 Calma 9 Sudeste 0 -- -- 95
2019-11-17 21:00:00 6.7 5 Sudeste 8 Sudeste 0.2 -- -- 95
2019-11-17 20:00:00 6.9 0 Calma 7 Sudeste 0 -- -- 94
2019-11-17 19:00:00 7.4 2 Sudeste 5 Sudoeste 0 -- -- 90
2019-11-17 18:00:00 8.6 3 Oeste 9 Noroeste 0 -- -- 84
2019-11-17 17:00:00 8.9 0 Calma 10 Sudoeste 0 -- -- 83
2019-11-17 16:00:00 9.1 2 Sudoeste 7 Oeste 0 -- -- 81
2019-11-17 15:00:00 9 3 Noroeste 11 Noroeste 0 -- -- 79
2019-11-17 14:00:00 8.9 5 Noroeste 19 Noroeste 0 -- -- 78
2019-11-17 13:00:00 8.7 8 Noroeste 16 Noroeste 0.2 -- -- 78
2019-11-17 12:00:00 8.1 5 Noroeste 9 Noroeste 0 -- -- 77
2019-11-17 11:00:00 7.3 4 Noroeste 12 Noroeste 0 -- -- 77
2019-11-17 10:00:00 6.4 4 Oeste 7 Oeste 0 -- -- 78
2019-11-17 09:00:00 5.4 2 Noroeste 12 Noroeste 0 -- -- 82
2019-11-17 08:00:00 5 6 Noroeste 13 Noroeste 0 -- -- 82
2019-11-17 07:00:00 4.4 6 Norte 14 Noroeste 0 -- -- 85
2019-11-17 06:00:00 3.8 4 Norte 9 Norte 0 -- -- 89
2019-11-17 05:00:00 2.9 0 Calma 6 Oeste 0 -- -- 93
2019-11-17 04:00:00 2.4 0 Calma -- -- 0 -- -- 95
2019-11-17 03:00:00 2.2 0 Calma 6 Sudoeste 0 -- -- 91
2019-11-17 02:00:00 2.4 2 Oeste 8 Noroeste 0 -- -- 89
2019-11-17 01:00:00 3.2 2 Noroeste 8 Oeste 0 -- -- 90
2019-11-17 00:00:00 4.5 3 Noroeste 10 Oeste 0 -- -- 83
2019-11-16 23:00:00 4.6 10 Noroeste 15 Noroeste 0 -- -- 80
2019-11-16 22:00:00 3.5 0 Calma 6 Nordeste 0 -- -- 89
2019-11-16 21:00:00 5 0 Calma 9 Noroeste 0 -- -- 88
2019-11-16 20:00:00 5.7 5 Noroeste 10 Oeste 0 -- -- 84
2019-11-16 19:00:00 5.2 4 Noroeste 6 Noroeste 0 -- -- 90
2019-11-16 18:00:00 5.2 3 Nordeste 6 Nordeste 0 -- -- 89
2019-11-16 17:00:00 5.6 3 Nordeste 9 Este 0 -- -- 87
2019-11-16 16:00:00 5.5 3 Este 6 Este 0 -- -- 88
2019-11-16 15:00:00 5.4 5 Este 9 Este 0 -- -- 87
2019-11-16 14:00:00 5.2 0 Calma 5 Sudeste 0 -- -- 85
2019-11-16 13:00:00 4.5 2 Sur 5 Este 0.2 -- -- 87
2019-11-16 12:00:00 3.6 4 Sudeste 6 Sudeste 0 -- -- 91
2019-11-16 11:00:00 3 0 Calma 4 Sudoeste 0 -- -- 92
2019-11-16 10:00:00 1.8 2 Noroeste 7 Oeste 0 -- -- 94
2019-11-16 09:00:00 -0.1 0 Calma 7 Oeste 0 -- -- 95
2019-11-16 08:00:00 -0.7 3 Noroeste 5 Sudoeste 0 -- -- 96
2019-11-16 07:00:00 -0.7 0 Calma 7 Noroeste 0 -- -- 94
2019-11-16 06:00:00 -0.2 3 Noroeste 9 Noroeste 0 -- -- 93
2019-11-16 05:00:00 1 5 Noroeste 11 Noroeste 0 -- -- 91
2019-11-16 04:00:00 1.2 4 Noroeste 13 Noroeste 0 -- -- 92
2019-11-16 03:00:00 1 7 Noroeste 9 Noroeste 0 -- -- 93
2019-11-16 02:00:00 0.7 3 Oeste 7 Noroeste 0 -- -- 92
2019-11-16 01:00:00 1 6 Noroeste 10 Noroeste 0 -- -- 92
2019-11-16 00:00:00 2.4 3 Noroeste 12 Noroeste 0 -- -- 89
2019-11-15 23:00:00 3 4 Norte 14 Noroeste 0 -- -- 88
2019-11-15 22:00:00 3.4 9 Noroeste 25 Oeste 0 -- -- 87
2019-11-15 21:00:00 3.9 12 Noroeste 23 Noroeste 0 -- -- 86
2019-11-15 20:00:00 4 10 Noroeste 20 Noroeste 0 -- -- 85
2019-11-15 19:00:00 4 12 Noroeste 24 Noroeste 0 -- -- 83
2019-11-15 18:00:00 4.4 18 Noroeste 34 Noroeste 0 -- -- 84
2019-11-15 17:00:00 5.4 21 Noroeste 40 Oeste 0 -- -- 80
2019-11-15 16:00:00 6.7 23 Noroeste 37 Noroeste 0 -- -- 75
2019-11-15 15:00:00 7 20 Oeste 42 Noroeste 0 -- -- 73
2019-11-15 14:00:00 7.1 26 Oeste 45 Oeste 0 -- -- 74
2019-11-15 13:00:00 6.2 27 Oeste 46 Noroeste 0 -- -- 80
2019-11-15 12:00:00 6 14 Oeste 36 Oeste 0 -- -- 81
2019-11-15 11:00:00 5.7 10 Oeste 29 Oeste 0 -- -- 83
2019-11-15 10:00:00 4.9 6 Oeste 19 Oeste 0.4 -- -- 87
2019-11-15 09:00:00 4.1 6 Sudoeste 21 Noroeste 1.4 -- -- 89
2019-11-15 08:00:00 3.8 8 Oeste 20 Noroeste 0 -- -- 88
2019-11-15 07:00:00 3.8 7 Oeste 23 Oeste 0.2 -- -- 86
2019-11-15 06:00:00 3.7 11 Oeste 29 Oeste 0 -- -- 84
2019-11-15 05:00:00 1.5 0 Calma 6 Este 0 -- -- 95
2019-11-15 04:00:00 1.7 2 Este 8 Noroeste 0 -- -- 93
2019-11-15 03:00:00 2.7 6 Noroeste 10 Noroeste 0 -- -- 90
2019-11-15 02:00:00 3.2 5 Noroeste 11 Noroeste 0 -- -- 90
2019-11-15 01:00:00 3.2 3 Noroeste 12 Oeste 0 -- -- 89
2019-11-15 00:00:00 4.5 10 Noroeste 18 Noroeste 0 -- -- 86
2019-11-14 23:00:00 4.5 9 Noroeste 13 Noroeste 0 -- -- 89
2019-11-14 22:00:00 4.9 3 Oeste 18 Noroeste 0 -- -- 85
2019-11-14 21:00:00 5.4 10 Noroeste 17 Noroeste 0 -- -- 80
2019-11-14 20:00:00 5.2 8 Noroeste 29 Oeste 0 -- -- 79
2019-11-14 19:00:00 5.8 6 Oeste 22 Oeste 0 -- -- 77
2019-11-14 18:00:00 6.2 2 Este 8 Sur 0 -- -- 80
2019-11-14 17:00:00 8.6 0 Calma 14 Sudoeste 0 -- -- 60
2019-11-14 16:00:00 9.4 5 Sudoeste 21 Noroeste 0 -- -- 53
2019-11-14 15:00:00 9 10 Noroeste 17 Noroeste 0 -- -- 57
2019-11-14 14:00:00 10 6 Sudoeste 18 Oeste 0 -- -- 57
2019-11-14 13:00:00 8.5 8 Noroeste 15 Oeste 0 -- -- 65
2019-11-14 12:00:00 7.3 4 Oeste 10 Noroeste 0 -- -- 73
2019-11-14 11:00:00 6.4 2 Noroeste 14 Noroeste 0 -- -- 77
2019-11-14 10:00:00 4.6 8 Noroeste 17 Noroeste 0 -- -- 89
2019-11-14 09:00:00 3.8 6 Noroeste 10 Oeste 0 -- -- 93
2019-11-14 08:00:00 3.8 3 Norte 14 Norte 0.2 -- -- 90
2019-11-14 07:00:00 4.4 11 Norte 26 Noroeste 1.4 -- -- 87
2019-11-14 06:00:00 4.7 12 Norte 32 Norte 2.8 -- -- 90
2019-11-14 05:00:00 6.7 17 Noroeste 31 Norte 2.6 -- -- 90
2019-11-14 04:00:00 6.9 3 Noroeste 10 Sudeste 0 -- -- 87
2019-11-14 03:00:00 7.3 4 Sur 14 Sudeste 0 -- -- 81
2019-11-14 02:00:00 6.6 2 Sudeste 9 Sudeste 0 -- -- 86
2019-11-14 01:00:00 6.6 0 Calma 13 Noroeste 0 -- -- 84
2019-11-14 00:00:00 6.4 5 Noroeste 17 Oeste 0 -- -- 85
2019-11-13 23:00:00 5.7 4 Sur 9 Sudeste 0 -- -- 87
2019-11-13 22:00:00 5.6 0 Calma 7 Sudeste 0 -- -- 87
2019-11-13 21:00:00 6.7 4 Sudeste 10 Sudeste 0 -- -- 83
2019-11-13 20:00:00 7.1 2 Sudeste 10 Nordeste 0 -- -- 79
2019-11-13 19:00:00 7.9 4 Sudeste 6 Sudeste 0 -- -- 80
2019-11-13 18:00:00 9.1 0 Calma 16 Norte 0 -- -- 73
2019-11-13 17:00:00 11 11 Noroeste 21 Noroeste 0 -- -- 59
2019-11-13 16:00:00 11.7 12 Noroeste 32 Noroeste 0 -- -- 59
2019-11-13 15:00:00 12.5 17 Noroeste 33 Noroeste 0 -- -- 56
2019-11-13 14:00:00 13 14 Noroeste 29 Noroeste 0 -- -- 57
2019-11-13 13:00:00 11.8 13 Noroeste 25 Noroeste 0 -- -- 67
2019-11-13 12:00:00 10.2 12 Norte 32 Noroeste 0 -- -- 78
2019-11-13 11:00:00 10.9 17 Noroeste 31 Noroeste 0.2 -- -- 75
2019-11-13 10:00:00 9.5 15 Noroeste 29 Norte 0 -- -- 84
2019-11-13 09:00:00 8.1 15 Noroeste 25 Noroeste 0 -- -- 91
2019-11-13 08:00:00 7.5 14 Noroeste 24 Noroeste 0 -- -- 94
2019-11-13 07:00:00 7.4 13 Noroeste 20 Noroeste 1.4 -- -- 95
2019-11-13 06:00:00 7.5 10 Noroeste 16 Noroeste 2 -- -- 95
2019-11-13 05:00:00 7.5 4 Noroeste 6 Noroeste 0.4 -- -- 95
2019-11-13 04:00:00 7.5 0 Calma 9 Este 0.2 -- -- 93
2019-11-13 03:00:00 7.4 4 Este 8 Nordeste 0.2 -- -- 94
2019-11-13 02:00:00 7.6 0 Calma 4 Sur 0 -- -- 93
2019-11-13 01:00:00 7.6 2 Sur 8 Sur 0.2 -- -- 92
2019-11-13 00:00:00 7.8 0 Calma 6 Norte 0 -- -- 89
2019-11-12 23:00:00 8.1 4 Noroeste 9 Noroeste 0 -- -- 87
2019-11-12 22:00:00 8.3 5 Norte 18 Noroeste 0.2 -- -- 86
2019-11-12 21:00:00 9.2 10 Noroeste 16 Noroeste 0 -- -- 80
2019-11-12 20:00:00 8.4 0 Calma 5 Oeste 0 -- -- 87
2019-11-12 19:00:00 9.1 0 Calma 6 Noroeste 0 -- -- 82
2019-11-12 18:00:00 10.3 4 Noroeste 9 Noroeste 0 -- -- 72
2019-11-12 17:00:00 11 5 Noroeste 15 Noroeste 0 -- -- 70
2019-11-12 16:00:00 11.2 7 Noroeste 25 Oeste 0 -- -- 67
2019-11-12 15:00:00 11.4 11 Noroeste 24 Noroeste 0 -- -- 65
2019-11-12 14:00:00 11.1 18 Noroeste 33 Noroeste 0 -- -- 65
2019-11-12 13:00:00 11.2 16 Noroeste 34 Noroeste 0 -- -- 68
2019-11-12 12:00:00 10.3 16 Noroeste 26 Noroeste 0 -- -- 72
2019-11-12 11:00:00 9.4 18 Noroeste 27 Noroeste 0 -- -- 73
2019-11-12 10:00:00 8.1 14 Noroeste 26 Noroeste 0 -- -- 80
2019-11-12 09:00:00 6.9 4 Noroeste 9 Noroeste 0 -- -- 87
2019-11-12 08:00:00 6.3 0 Calma 12 Oeste 0 -- -- 89
2019-11-12 07:00:00 6.3 8 Noroeste 12 Oeste 0 -- -- 88
2019-11-12 06:00:00 6.1 3 Noroeste 10 Noroeste 0 -- -- 88
2019-11-12 05:00:00 5.8 4 Norte 14 Noroeste 0 -- -- 88
2019-11-12 04:00:00 5.8 8 Noroeste 13 Oeste 0 -- -- 86
2019-11-12 03:00:00 5.7 5 Noroeste 18 Oeste 0 -- -- 85
2019-11-12 02:00:00 5.2 8 Noroeste 18 Oeste 0 -- -- 87
2019-11-12 01:00:00 5 3 Oeste 10 Noroeste -- -- -- 85
2019-11-12 00:00:00 5.5 11 Noroeste 21 Noroeste 0 -- -- 86